sensor_id;sensor_type;location;lat;lon;timestamp;pressure;altitude;pressure_sealevel;temperature;humidity
62680;BME280;68213;40.528;44.712;2023-05-10T00:00:39;80463.53;;;6.85;68.26
62680;BME280;68213;40.528;44.712;2023-05-10T00:01:40;80465.47;;;6.85;68.13
62680;BME280;68213;40.528;44.712;2023-05-10T00:02:41;80460.66;;;6.81;68.31
62680;BME280;68213;40.528;44.712;2023-05-10T00:03:41;80456.69;;;6.80;68.62
62680;BME280;68213;40.528;44.712;2023-05-10T00:04:42;80458.59;;;6.79;68.86
62680;BME280;68213;40.528;44.712;2023-05-10T00:05:45;80461.78;;;6.78;68.63
62680;BME280;68213;40.528;44.712;2023-05-10T00:06:45;80459.16;;;6.78;69.03
62680;BME280;68213;40.528;44.712;2023-05-10T00:07:46;80461.09;;;6.77;68.94
62680;BME280;68213;40.528;44.712;2023-05-10T00:08:47;80461.78;;;6.78;68.93
62680;BME280;68213;40.528;44.712;2023-05-10T00:09:47;80455.59;;;6.73;69.30
62680;BME280;68213;40.528;44.712;2023-05-10T00:10:48;80463.88;;;6.70;69.43
62680;BME280;68213;40.528;44.712;2023-05-10T00:11:49;80462.25;;;6.64;69.75
62680;BME280;68213;40.528;44.712;2023-05-10T00:12:50;80461.69;;;6.66;69.59
62680;BME280;68213;40.528;44.712;2023-05-10T00:13:51;80461.00;;;6.65;69.59
62680;BME280;68213;40.528;44.712;2023-05-10T00:14:53;80459.06;;;6.66;69.73
62680;BME280;68213;40.528;44.712;2023-05-10T00:15:53;80457.25;;;6.69;69.66
62680;BME280;68213;40.528;44.712;2023-05-10T00:16:54;80458.50;;;6.67;69.45
62680;BME280;68213;40.528;44.712;2023-05-10T00:17:54;80452.97;;;6.73;69.47
62680;BME280;68213;40.528;44.712;2023-05-10T00:18:55;80447.34;;;6.77;69.06
62680;BME280;68213;40.528;44.712;2023-05-10T00:19:56;80452.81;;;6.81;68.94
62680;BME280;68213;40.528;44.712;2023-05-10T00:20:56;80456.94;;;6.84;68.99
62680;BME280;68213;40.528;44.712;2023-05-10T00:21:57;80451.84;;;6.86;69.16
62680;BME280;68213;40.528;44.712;2023-05-10T00:22:58;80455.44;;;6.81;69.28
62680;BME280;68213;40.528;44.712;2023-05-10T00:23:58;80454.44;;;6.86;69.39
62680;BME280;68213;40.528;44.712;2023-05-10T00:25:02;80463.78;;;6.89;68.97
62680;BME280;68213;40.528;44.712;2023-05-10T00:26:04;80463.47;;;6.95;68.96
62680;BME280;68213;40.528;44.712;2023-05-10T00:27:05;80452.47;;;6.96;68.83
62680;BME280;68213;40.528;44.712;2023-05-10T00:28:05;80459.06;;;6.97;68.60
62680;BME280;68213;40.528;44.712;2023-05-10T00:29:09;80457.81;;;6.98;68.63
62680;BME280;68213;40.528;44.712;2023-05-10T00:30:10;80456.34;;;6.95;68.86
62680;BME280;68213;40.528;44.712;2023-05-10T00:31:10;80460.06;;;6.92;68.88
62680;BME280;68213;40.528;44.712;2023-05-10T00:32:11;80453.31;;;6.89;68.98
62680;BME280;68213;40.528;44.712;2023-05-10T00:33:11;80455.69;;;6.85;69.42
62680;BME280;68213;40.528;44.712;2023-05-10T00:34:12;80453.06;;;6.85;69.10
62680;BME280;68213;40.528;44.712;2023-05-10T00:35:13;80454.88;;;6.82;69.20
62680;BME280;68213;40.528;44.712;2023-05-10T00:36:14;80452.81;;;6.81;69.42
62680;BME280;68213;40.528;44.712;2023-05-10T00:37:14;80448.94;;;6.82;69.27
62680;BME280;68213;40.528;44.712;2023-05-10T00:38:15;80448.13;;;6.79;69.56
62680;BME280;68213;40.528;44.712;2023-05-10T00:39:16;80446.22;;;6.80;69.58
62680;BME280;68213;40.528;44.712;2023-05-10T00:40:16;80461.78;;;6.78;69.45
62680;BME280;68213;40.528;44.712;2023-05-10T00:41:17;80452.00;;;6.78;69.24
62680;BME280;68213;40.528;44.712;2023-05-10T00:42:18;80450.06;;;6.79;69.39
62680;BME280;68213;40.528;44.712;2023-05-10T00:43:18;80442.66;;;6.75;69.41
62680;BME280;68213;40.528;44.712;2023-05-10T00:44:19;80453.41;;;6.70;69.70
62680;BME280;68213;40.528;44.712;2023-05-10T00:45:20;80449.56;;;6.71;69.59
62680;BME280;68213;40.528;44.712;2023-05-10T00:46:20;80455.47;;;6.71;69.69
62680;BME280;68213;40.528;44.712;2023-05-10T00:47:22;80446.53;;;6.74;69.41
62680;BME280;68213;40.528;44.712;2023-05-10T00:48:23;80452.41;;;6.75;69.75
62680;BME280;68213;40.528;44.712;2023-05-10T00:49:24;80444.59;;;6.75;69.32
62680;BME280;68213;40.528;44.712;2023-05-10T00:50:25;80446.13;;;6.68;69.56
62680;BME280;68213;40.528;44.712;2023-05-10T00:51:26;80446.94;;;6.71;69.55
62680;BME280;68213;40.528;44.712;2023-05-10T00:52:28;80445.84;;;6.74;69.42
62680;BME280;68213;40.528;44.712;2023-05-10T00:53:31;80448.47;;;6.74;69.62
62680;BME280;68213;40.528;44.712;2023-05-10T00:54:34;80437.16;;;6.71;69.56
62680;BME280;68213;40.528;44.712;2023-05-10T00:55:35;80448.19;;;6.70;69.59
62680;BME280;68213;40.528;44.712;2023-05-10T00:56:36;80445.56;;;6.70;69.66
62680;BME280;68213;40.528;44.712;2023-05-10T00:57:37;80383.66;;;6.19;69.81
62680;BME280;68213;40.528;44.712;2023-05-10T00:58:39;80443.44;;;6.56;70.19
62680;BME280;68213;40.528;44.712;2023-05-10T00:59:40;80446.19;;;6.48;70.34
62680;BME280;68213;40.528;44.712;2023-05-10T01:00:42;80448.13;;;6.48;70.57
62680;BME280;68213;40.528;44.712;2023-05-10T01:01:44;80424.28;;;6.32;70.36
62680;BME280;68213;40.528;44.712;2023-05-10T01:02:46;80439.22;;;6.41;70.60
62680;BME280;68213;40.528;44.712;2023-05-10T01:03:49;80435.69;;;6.37;70.47
62680;BME280;68213;40.528;44.712;2023-05-10T01:04:50;80432.41;;;6.26;70.56
62680;BME280;68213;40.528;44.712;2023-05-10T01:05:50;80445.72;;;6.30;70.92
62680;BME280;68213;40.528;44.712;2023-05-10T01:06:52;80440.22;;;6.26;71.10
62680;BME280;68213;40.528;44.712;2023-05-10T01:07:53;80453.16;;;6.24;71.41
62680;BME280;68213;40.528;44.712;2023-05-10T01:08:55;80458.53;;;6.16;71.70
62680;BME280;68213;40.528;44.712;2023-05-10T01:09:56;80447.69;;;6.10;72.04
62680;BME280;68213;40.528;44.712;2023-05-10T01:10:58;80454.69;;;6.17;72.00
62680;BME280;68213;40.528;44.712;2023-05-10T01:11:59;80449.47;;;6.17;71.79
62680;BME280;68213;40.528;44.712;2023-05-10T01:13:01;80451.38;;;6.17;71.32
62680;BME280;68213;40.528;44.712;2023-05-10T01:14:03;80452.19;;;6.19;71.46
62680;BME280;68213;40.528;44.712;2023-05-10T01:15:08;80451.66;;;6.21;71.16
62680;BME280;68213;40.528;44.712;2023-05-10T01:16:10;80447.13;;;6.22;71.20
62680;BME280;68213;40.528;44.712;2023-05-10T01:17:12;80454.69;;;6.17;71.26
62680;BME280;68213;40.528;44.712;2023-05-10T01:18:13;80446.44;;;6.21;71.13
62680;BME280;68213;40.528;44.712;2023-05-10T01:19:22;80448.91;;;6.19;71.01
62680;BME280;68213;40.528;44.712;2023-05-10T01:20:24;80450.81;;;6.18;71.02
62680;BME280;68213;40.528;44.712;2023-05-10T01:34:12;80452.53;;;5.75;72.49
62680;BME280;68213;40.528;44.712;2023-05-10T01:36:51;80452.69;;;5.47;73.44
62680;BME280;68213;40.528;44.712;2023-05-10T01:38:07;80453.91;;;5.46;73.73
62680;BME280;68213;40.528;44.712;2023-05-10T01:39:31;80450.22;;;5.49;73.30
62680;BME280;68213;40.528;44.712;2023-05-10T01:40:39;80444.72;;;5.45;73.03
62680;BME280;68213;40.528;44.712;2023-05-10T01:41:51;80445.97;;;5.54;72.84
62680;BME280;68213;40.528;44.712;2023-05-10T01:43:01;80445.69;;;5.50;73.11
62680;BME280;68213;40.528;44.712;2023-05-10T01:44:12;80445.97;;;5.54;72.94
62680;BME280;68213;40.528;44.712;2023-05-10T01:45:33;80449.38;;;5.56;72.88
62680;BME280;68213;40.528;44.712;2023-05-10T01:46:39;80424.00;;;5.37;72.72
62680;BME280;68213;40.528;44.712;2023-05-10T01:47:42;80444.72;;;5.55;72.57
62680;BME280;68213;40.528;44.712;2023-05-10T01:48:55;80448.69;;;5.56;72.67
62680;BME280;68213;40.528;44.712;2023-05-10T01:50:02;80446.22;;;5.58;72.25
62680;BME280;68213;40.528;44.712;2023-05-10T01:51:04;80451.59;;;5.60;72.37
62680;BME280;68213;40.528;44.712;2023-05-10T01:52:09;80453.63;;;5.62;72.00
62680;BME280;68213;40.528;44.712;2023-05-10T01:53:13;80441.97;;;5.63;71.95
62680;BME280;68213;40.528;44.712;2023-05-10T01:54:19;80449.25;;;5.64;71.68
62680;BME280;68213;40.528;44.712;2023-05-10T01:55:24;80451.69;;;5.62;71.59
62680;BME280;68213;40.528;44.712;2023-05-10T01:56:26;80444.44;;;5.61;71.30
62680;BME280;68213;40.528;44.712;2023-05-10T01:57:33;80446.38;;;5.60;71.55
62680;BME280;68213;40.528;44.712;2023-05-10T01:58:36;80448.16;;;5.58;71.35
62680;BME280;68213;40.528;44.712;2023-05-10T01:59:43;80454.06;;;5.58;71.82
62680;BME280;68213;40.528;44.712;2023-05-10T02:00:47;80426.06;;;5.39;72.19
62680;BME280;68213;40.528;44.712;2023-05-10T02:01:51;80455.13;;;5.55;72.38
62680;BME280;68213;40.528;44.712;2023-05-10T02:02:54;80454.47;;;5.54;72.62
62680;BME280;68213;40.528;44.712;2023-05-10T02:03:57;80454.31;;;5.52;72.65
62680;BME280;68213;40.528;44.712;2023-05-10T02:04:59;80455.03;;;5.53;72.89
62680;BME280;68213;40.528;44.712;2023-05-10T02:05:59;80456.41;;;5.54;72.86
62680;BME280;68213;40.528;44.712;2023-05-10T02:07:03;80455.28;;;5.57;72.81
62680;BME280;68213;40.528;44.712;2023-05-10T02:08:06;80458.72;;;5.30;73.22
62680;BME280;68213;40.528;44.712;2023-05-10T02:09:09;80446.09;;;5.17;73.41
62680;BME280;68213;40.528;44.712;2023-05-10T02:10:11;80456.22;;;5.22;73.53
62680;BME280;68213;40.528;44.712;2023-05-10T02:11:14;80454.19;;;5.21;73.75
62680;BME280;68213;40.528;44.712;2023-05-10T02:12:15;80455.28;;;5.28;73.61
62680;BME280;68213;40.528;44.712;2023-05-10T02:13:18;80454.47;;;5.35;73.53
62680;BME280;68213;40.528;44.712;2023-05-10T02:14:19;80451.56;;;5.31;73.16
62680;BME280;68213;40.528;44.712;2023-05-10T02:15:24;80453.91;;;5.36;73.23
62680;BME280;68213;40.528;44.712;2023-05-10T02:16:27;80465.31;;;5.41;73.05
62680;BME280;68213;40.528;44.712;2023-05-10T02:17:29;80467.38;;;5.43;72.80
62680;BME280;68213;40.528;44.712;2023-05-10T02:18:32;80464.19;;;5.44;72.67
62680;BME280;68213;40.528;44.712;2023-05-10T02:19:35;80457.50;;;5.41;72.82
62680;BME280;68213;40.528;44.712;2023-05-10T02:20:57;80461.31;;;5.50;72.21
62680;BME280;68213;40.528;44.712;2023-05-10T02:21:59;80439.78;;;5.20;72.64
62680;BME280;68213;40.528;44.712;2023-05-10T02:23:02;80457.50;;;5.31;72.80
62680;BME280;68213;40.528;44.712;2023-05-10T02:24:04;80466.81;;;5.34;72.76
62680;BME280;68213;40.528;44.712;2023-05-10T02:25:06;80462.41;;;5.27;73.18
62680;BME280;68213;40.528;44.712;2023-05-10T02:26:12;80463.38;;;5.32;73.19
62680;BME280;68213;40.528;44.712;2023-05-10T02:27:15;80459.81;;;5.37;72.97
62680;BME280;68213;40.528;44.712;2023-05-10T02:28:17;80449.38;;;5.27;72.99
62680;BME280;68213;40.528;44.712;2023-05-10T02:29:18;80472.03;;;5.44;73.06
62680;BME280;68213;40.528;44.712;2023-05-10T02:30:20;80469.97;;;5.43;72.98
62680;BME280;68213;40.528;44.712;2023-05-10T02:31:25;80469.16;;;5.40;73.08
62680;BME280;68213;40.528;44.712;2023-05-10T02:32:27;80476.81;;;5.48;72.91
62680;BME280;68213;40.528;44.712;2023-05-10T02:33:29;80460.09;;;5.41;72.83
62680;BME280;68213;40.528;44.712;2023-05-10T02:34:31;80470.13;;;5.45;72.96
62680;BME280;68213;40.528;44.712;2023-05-10T02:35:33;80462.56;;;5.39;72.90
62680;BME280;68213;40.528;44.712;2023-05-10T02:36:36;80465.88;;;5.49;72.95
62680;BME280;68213;40.528;44.712;2023-05-10T02:37:39;80472.56;;;5.52;72.71
62680;BME280;68213;40.528;44.712;2023-05-10T02:38:40;80474.66;;;5.54;72.74
62680;BME280;68213;40.528;44.712;2023-05-10T02:39:43;80467.91;;;5.51;73.14
62680;BME280;68213;40.528;44.712;2023-05-10T02:40:46;80471.91;;;5.52;73.48
62680;BME280;68213;40.528;44.712;2023-05-10T02:41:49;80469.00;;;5.48;73.46
62680;BME280;68213;40.528;44.712;2023-05-10T02:42:52;80471.34;;;5.44;74.02
62680;BME280;68213;40.528;44.712;2023-05-10T02:43:57;80471.50;;;5.46;73.73
62680;BME280;68213;40.528;44.712;2023-05-10T02:45:01;80476.41;;;5.32;73.91
62680;BME280;68213;40.528;44.712;2023-05-10T02:46:05;80472.56;;;5.23;74.55
62680;BME280;68213;40.528;44.712;2023-05-10T02:47:06;80474.78;;;5.27;74.86
62680;BME280;68213;40.528;44.712;2023-05-10T02:48:07;80474.38;;;5.30;75.17
62680;BME280;68213;40.528;44.712;2023-05-10T02:49:08;80476.16;;;5.37;74.96
62680;BME280;68213;40.528;44.712;2023-05-10T02:50:09;80478.19;;;5.39;74.91
62680;BME280;68213;40.528;44.712;2023-05-10T02:51:11;80476.69;;;5.46;74.59
62680;BME280;68213;40.528;44.712;2023-05-10T02:52:15;80477.78;;;5.52;74.32
62680;BME280;68213;40.528;44.712;2023-05-10T02:53:31;80478.59;;;5.55;74.44
62680;BME280;68213;40.528;44.712;2023-05-10T02:54:48;80478.91;;;5.59;74.08
62680;BME280;68213;40.528;44.712;2023-05-10T02:55:52;80480.69;;;5.66;73.86
62680;BME280;68213;40.528;44.712;2023-05-10T02:57:00;80480.38;;;5.62;73.87
62680;BME280;68213;40.528;44.712;2023-05-10T02:58:04;80479.03;;;5.61;74.18
62680;BME280;68213;40.528;44.712;2023-05-10T02:59:05;80483.44;;;5.68;74.16
62680;BME280;68213;40.528;44.712;2023-05-10T03:00:06;80482.59;;;5.76;73.87
62680;BME280;68213;40.528;44.712;2023-05-10T03:01:07;80479.16;;;5.83;73.36
62680;BME280;68213;40.528;44.712;2023-05-10T03:02:09;80472.41;;;5.90;73.42
62680;BME280;68213;40.528;44.712;2023-05-10T03:03:10;80477.34;;;5.95;73.37
62680;BME280;68213;40.528;44.712;2023-05-10T03:04:11;80477.66;;;5.99;73.73
62680;BME280;68213;40.528;44.712;2023-05-10T03:05:12;80476.41;;;6.00;73.49
62680;BME280;68213;40.528;44.712;2023-05-10T03:06:12;80483.81;;;6.04;73.22
62680;BME280;68213;40.528;44.712;2023-05-10T03:07:13;80478.88;;;6.08;73.10
62680;BME280;68213;40.528;44.712;2023-05-10T03:08:14;80477.66;;;6.09;73.18
62680;BME280;68213;40.528;44.712;2023-05-10T03:09:15;80477.22;;;6.13;72.97
62680;BME280;68213;40.528;44.712;2023-05-10T03:10:16;80472.41;;;6.19;72.67
62680;BME280;68213;40.528;44.712;2023-05-10T03:11:28;80474.16;;;6.26;72.20
62680;BME280;68213;40.528;44.712;2023-05-10T03:13:07;80474.84;;;6.37;71.82
62680;BME280;68213;40.528;44.712;2023-05-10T03:14:21;80477.28;;;6.44;71.48
62680;BME280;68213;40.528;44.712;2023-05-10T03:18:09;80468.56;;;6.61;70.85
62680;BME280;68213;40.528;44.712;2023-05-10T03:19:27;80473.63;;;6.69;70.55
62680;BME280;68213;40.528;44.712;2023-05-10T03:20:53;80472.09;;;6.76;70.15
62680;BME280;68213;40.528;44.712;2023-05-10T03:21:59;80476.34;;;6.81;70.25
62680;BME280;68213;40.528;44.712;2023-05-10T03:24:29;80466.53;;;6.91;69.84
62680;BME280;68213;40.528;44.712;2023-05-10T03:25:33;80468.13;;;6.96;69.70
62680;BME280;68213;40.528;44.712;2023-05-10T03:26:34;80472.41;;;7.02;69.18
62680;BME280;68213;40.528;44.712;2023-05-10T03:27:41;80468.78;;;7.07;69.10
62680;BME280;68213;40.528;44.712;2023-05-10T03:28:44;80476.34;;;7.12;68.40
62680;BME280;68213;40.528;44.712;2023-05-10T03:29:46;80465.31;;;7.14;68.50
62680;BME280;68213;40.528;44.712;2023-05-10T03:30:47;80486.72;;;7.22;68.13
62680;BME280;68213;40.528;44.712;2023-05-10T03:31:47;80479.13;;;7.26;67.94
62680;BME280;68213;40.528;44.712;2023-05-10T03:32:48;80478.97;;;7.34;68.06
62680;BME280;68213;40.528;44.712;2023-05-10T03:33:50;80478.09;;;7.41;68.22
62680;BME280;68213;40.528;44.712;2023-05-10T03:34:51;80474.25;;;7.42;68.17
62680;BME280;68213;40.528;44.712;2023-05-10T03:35:52;80483.13;;;7.49;67.58
62680;BME280;68213;40.528;44.712;2023-05-10T03:36:52;80483.53;;;7.55;67.12
62680;BME280;68213;40.528;44.712;2023-05-10T03:37:53;80484.34;;;7.58;66.62
62680;BME280;68213;40.528;44.712;2023-05-10T03:38:54;80481.53;;;7.66;66.35
62680;BME280;68213;40.528;44.712;2023-05-10T03:39:54;80483.13;;;7.71;66.22
62680;BME280;68213;40.528;44.712;2023-05-10T03:40:55;80479.03;;;7.68;67.28
62680;BME280;68213;40.528;44.712;2023-05-10T03:41:56;80480.78;;;7.75;67.24
62680;BME280;68213;40.528;44.712;2023-05-10T03:42:56;80480.91;;;7.77;66.80
62680;BME280;68213;40.528;44.712;2023-05-10T03:43:57;80478.78;;;7.85;66.28
62680;BME280;68213;40.528;44.712;2023-05-10T03:44:58;80480.38;;;7.90;65.99
62680;BME280;68213;40.528;44.712;2023-05-10T03:45:58;80483.94;;;7.95;66.18
62680;BME280;68213;40.528;44.712;2023-05-10T03:47:01;80483.72;;;8.03;65.61
62680;BME280;68213;40.528;44.712;2023-05-10T03:48:02;80474.88;;;8.08;65.60
62680;BME280;68213;40.528;44.712;2023-05-10T03:49:03;80481.47;;;8.09;64.43
62680;BME280;68213;40.528;44.712;2023-05-10T03:50:04;80481.28;;;8.17;64.74
62680;BME280;68213;40.528;44.712;2023-05-10T03:51:05;80488.34;;;8.14;64.80
62680;BME280;68213;40.528;44.712;2023-05-10T03:52:05;80477.59;;;8.10;65.01
62680;BME280;68213;40.528;44.712;2023-05-10T03:53:06;80481.50;;;8.21;65.53
62680;BME280;68213;40.528;44.712;2023-05-10T03:54:07;80481.06;;;8.24;65.50
62680;BME280;68213;40.528;44.712;2023-05-10T03:55:08;80486.31;;;8.24;65.12
62680;BME280;68213;40.528;44.712;2023-05-10T03:56:08;80489.28;;;8.31;65.02
62680;BME280;68213;40.528;44.712;2023-05-10T03:57:09;80482.94;;;8.34;64.86
62680;BME280;68213;40.528;44.712;2023-05-10T03:58:13;80478.41;;;8.46;64.14
62680;BME280;68213;40.528;44.712;2023-05-10T03:59:13;80485.50;;;8.55;63.72
62680;BME280;68213;40.528;44.712;2023-05-10T04:00:15;80482.00;;;8.63;63.96
62680;BME280;68213;40.528;44.712;2023-05-10T04:01:18;80482.25;;;8.67;63.43
62680;BME280;68213;40.528;44.712;2023-05-10T04:02:21;80478.81;;;8.76;62.95
62680;BME280;68213;40.528;44.712;2023-05-10T04:03:21;80479.28;;;8.84;63.19
62680;BME280;68213;40.528;44.712;2023-05-10T04:04:23;80488.53;;;8.85;62.51
62680;BME280;68213;40.528;44.712;2023-05-10T04:05:24;80484.88;;;8.91;62.04
62680;BME280;68213;40.528;44.712;2023-05-10T04:06:24;80482.38;;;8.93;62.76
62680;BME280;68213;40.528;44.712;2023-05-10T04:07:25;80485.00;;;9.04;62.53
62680;BME280;68213;40.528;44.712;2023-05-10T04:08:26;80479.44;;;8.98;62.30
62680;BME280;68213;40.528;44.712;2023-05-10T04:09:26;80482.03;;;8.98;62.05
62680;BME280;68213;40.528;44.712;2023-05-10T04:10:27;80492.09;;;9.02;62.23
62680;BME280;68213;40.528;44.712;2023-05-10T04:11:28;80487.19;;;9.08;61.48
62680;BME280;68213;40.528;44.712;2023-05-10T04:12:29;80478.84;;;9.12;62.27
62680;BME280;68213;40.528;44.712;2023-05-10T04:13:29;80478.28;;;9.13;62.75
62680;BME280;68213;40.528;44.712;2023-05-10T04:14:30;80478.28;;;9.01;62.31
62680;BME280;68213;40.528;44.712;2023-05-10T04:15:31;80484.88;;;9.02;62.82
62680;BME280;68213;40.528;44.712;2023-05-10T04:16:31;80488.31;;;9.05;63.07
62680;BME280;68213;40.528;44.712;2023-05-10T04:17:32;80484.44;;;9.06;63.02
62680;BME280;68213;40.528;44.712;2023-05-10T04:18:33;80486.13;;;9.01;62.62
62680;BME280;68213;40.528;44.712;2023-05-10T04:19:33;80486.72;;;9.00;62.50
62680;BME280;68213;40.528;44.712;2023-05-10T04:20:34;80488.56;;;9.09;63.04
62680;BME280;68213;40.528;44.712;2023-05-10T04:21:34;80485.59;;;9.03;63.33
62680;BME280;68213;40.528;44.712;2023-05-10T04:22:36;80492.88;;;9.04;63.30
62680;BME280;68213;40.528;44.712;2023-05-10T04:23:37;80497.00;;;9.08;62.57
62680;BME280;68213;40.528;44.712;2023-05-10T04:24:37;80495.81;;;8.99;63.31
62680;BME280;68213;40.528;44.712;2023-05-10T04:25:39;80498.56;;;9.01;63.58
62680;BME280;68213;40.528;44.712;2023-05-10T04:26:40;80465.63;;;8.86;63.44
62680;BME280;68213;40.528;44.712;2023-05-10T04:27:41;80487.97;;;9.11;62.93
62680;BME280;68213;40.528;44.712;2023-05-10T04:28:42;80491.50;;;9.15;62.69
62680;BME280;68213;40.528;44.712;2023-05-10T04:29:43;80485.59;;;9.03;63.13
62680;BME280;68213;40.528;44.712;2023-05-10T04:30:43;80471.78;;;8.91;62.77
62680;BME280;68213;40.528;44.712;2023-05-10T04:31:44;80489.91;;;9.10;62.76
62680;BME280;68213;40.528;44.712;2023-05-10T04:32:44;80488.31;;;9.05;63.83
62680;BME280;68213;40.528;44.712;2023-05-10T04:33:45;80488.44;;;9.07;63.48
62680;BME280;68213;40.528;44.712;2023-05-10T04:34:46;80493.66;;;9.07;63.33
62680;BME280;68213;40.528;44.712;2023-05-10T04:35:47;80496.31;;;9.19;63.33
62680;BME280;68213;40.528;44.712;2023-05-10T04:36:48;80494.72;;;9.26;63.34
62680;BME280;68213;40.528;44.712;2023-05-10T04:37:48;80490.94;;;9.29;62.78
62680;BME280;68213;40.528;44.712;2023-05-10T04:38:49;80491.84;;;9.45;63.08
62680;BME280;68213;40.528;44.712;2023-05-10T04:39:49;80486.94;;;9.51;63.22
62680;BME280;68213;40.528;44.712;2023-05-10T04:40:50;80480.88;;;9.61;62.69
62680;BME280;68213;40.528;44.712;2023-05-10T04:41:54;80489.09;;;9.67;62.44
62680;BME280;68213;40.528;44.712;2023-05-10T04:42:55;80482.91;;;9.74;62.82
62680;BME280;68213;40.528;44.712;2023-05-10T04:43:56;80474.28;;;9.60;63.07
62680;BME280;68213;40.528;44.712;2023-05-10T04:44:56;80486.94;;;9.51;63.71
62680;BME280;68213;40.528;44.712;2023-05-10T04:45:57;80487.16;;;9.67;64.04
62680;BME280;68213;40.528;44.712;2023-05-10T04:46:57;80486.69;;;9.71;63.91
62680;BME280;68213;40.528;44.712;2023-05-10T04:47:58;80486.59;;;9.69;64.16
62680;BME280;68213;40.528;44.712;2023-05-10T04:48:59;80484.16;;;9.73;63.78
62680;BME280;68213;40.528;44.712;2023-05-10T04:49:59;80482.91;;;9.74;63.51
62680;BME280;68213;40.528;44.712;2023-05-10T04:51:00;80488.28;;;9.76;62.69
62680;BME280;68213;40.528;44.712;2023-05-10T04:52:01;80488.31;;;9.64;62.98
62680;BME280;68213;40.528;44.712;2023-05-10T04:53:02;80487.63;;;9.64;62.76
62680;BME280;68213;40.528;44.712;2023-05-10T04:54:02;80487.63;;;9.64;62.91
62680;BME280;68213;40.528;44.712;2023-05-10T04:55:03;80491.84;;;9.69;63.19
62680;BME280;68213;40.528;44.712;2023-05-10T04:56:05;80485.44;;;9.72;63.58
62680;BME280;68213;40.528;44.712;2023-05-10T04:57:05;80493.31;;;9.72;62.98
62680;BME280;68213;40.528;44.712;2023-05-10T04:58:06;80495.59;;;9.78;62.88
62680;BME280;68213;40.528;44.712;2023-05-10T04:59:07;80490.78;;;9.86;62.58
62680;BME280;68213;40.528;44.712;2023-05-10T05:00:08;80485.97;;;9.94;62.26
62680;BME280;68213;40.528;44.712;2023-05-10T05:01:09;80488.44;;;10.04;61.75
62680;BME280;68213;40.528;44.712;2023-05-10T05:02:10;80491.41;;;10.10;62.40
62680;BME280;68213;40.528;44.712;2023-05-10T05:03:11;80488.63;;;10.20;61.10
62680;BME280;68213;40.528;44.712;2023-05-10T05:04:12;80486.44;;;10.28;61.06
62680;BME280;68213;40.528;44.712;2023-05-10T05:05:13;80496.16;;;10.26;60.25
62680;BME280;68213;40.528;44.712;2023-05-10T05:06:14;80484.06;;;10.21;59.91
62680;BME280;68213;40.528;44.712;2023-05-10T05:07:14;80488.38;;;10.28;59.45
62680;BME280;68213;40.528;44.712;2023-05-10T05:08:15;80487.00;;;10.27;59.52
62680;BME280;68213;40.528;44.712;2023-05-10T05:09:15;80487.69;;;10.39;59.65
62680;BME280;68213;40.528;44.712;2023-05-10T05:10:16;80484.09;;;10.46;59.99
62680;BME280;68213;40.528;44.712;2023-05-10T05:11:17;80467.09;;;10.36;59.44
62680;BME280;68213;40.528;44.712;2023-05-10T05:12:18;80479.63;;;10.61;59.00
62680;BME280;68213;40.528;44.712;2023-05-10T05:13:18;80482.44;;;10.65;58.24
62680;BME280;68213;40.528;44.712;2023-05-10T05:14:22;80481.38;;;10.70;58.75
62680;BME280;68213;40.528;44.712;2023-05-10T05:15:25;80480.81;;;10.72;57.45
62680;BME280;68213;40.528;44.712;2023-05-10T05:16:25;80482.88;;;10.73;57.76
62680;BME280;68213;40.528;44.712;2023-05-10T05:17:26;80480.91;;;10.74;58.16
62680;BME280;68213;40.528;44.712;2023-05-10T05:18:27;80476.22;;;10.72;58.16
62680;BME280;68213;40.528;44.712;2023-05-10T05:19:31;80476.53;;;10.78;58.23
62680;BME280;68213;40.528;44.712;2023-05-10T05:20:32;80473.91;;;10.78;58.45
62680;BME280;68213;40.528;44.712;2023-05-10T05:21:34;80475.31;;;10.93;57.61
62680;BME280;68213;40.528;44.712;2023-05-10T05:22:36;80483.31;;;10.95;57.77
62680;BME280;68213;40.528;44.712;2023-05-10T05:23:39;80478.75;;;10.96;57.34
62680;BME280;68213;40.528;44.712;2023-05-10T05:24:40;80476.22;;;10.98;57.32
62680;BME280;68213;40.528;44.712;2023-05-10T05:25:41;80480.69;;;10.95;56.36
62680;BME280;68213;40.528;44.712;2023-05-10T05:26:42;80482.03;;;10.97;57.58
62680;BME280;68213;40.528;44.712;2023-05-10T05:27:42;80489.25;;;10.96;57.51
62680;BME280;68213;40.528;44.712;2023-05-10T05:28:43;80481.47;;;10.98;57.19
62680;BME280;68213;40.528;44.712;2023-05-10T05:29:44;80467.81;;;10.88;57.37
62680;BME280;68213;40.528;44.712;2023-05-10T05:30:44;80485.16;;;10.93;58.32
62680;BME280;68213;40.528;44.712;2023-05-10T05:31:45;80486.94;;;11.02;57.78
62680;BME280;68213;40.528;44.712;2023-05-10T05:32:46;80482.94;;;11.01;58.98
62680;BME280;68213;40.528;44.712;2023-05-10T05:33:49;80477.78;;;11.03;58.13
62680;BME280;68213;40.528;44.712;2023-05-10T05:34:51;80478.09;;;11.09;57.87
62680;BME280;68213;40.528;44.712;2023-05-10T05:35:51;80479.09;;;11.16;58.08
62680;BME280;68213;40.528;44.712;2023-05-10T05:36:52;80471.28;;;11.18;57.47
62680;BME280;68213;40.528;44.712;2023-05-10T05:37:53;80480.28;;;11.27;57.16
62680;BME280;68213;40.528;44.712;2023-05-10T05:38:53;80467.59;;;11.37;57.24
62680;BME280;68213;40.528;44.712;2023-05-10T05:39:54;80462.06;;;11.45;57.96
62680;BME280;68213;40.528;44.712;2023-05-10T05:40:55;80463.50;;;11.48;56.71
62680;BME280;68213;40.528;44.712;2023-05-10T05:41:55;80467.25;;;11.57;56.24
62680;BME280;68213;40.528;44.712;2023-05-10T05:42:56;80470.28;;;11.65;55.68
62680;BME280;68213;40.528;44.712;2023-05-10T05:45:04;80476.81;;;11.64;56.54
62680;BME280;68213;40.528;44.712;2023-05-10T05:46:06;80466.06;;;11.74;57.29
62680;BME280;68213;40.528;44.712;2023-05-10T05:47:06;80468.59;;;11.86;56.00
62680;BME280;68213;40.528;44.712;2023-05-10T05:48:07;80459.25;;;11.97;55.23
62680;BME280;68213;40.528;44.712;2023-05-10T05:49:07;80475.53;;;11.93;55.71